sensor_id;sensor_type;location;lat;lon;timestamp;temperature;humidity
23475;DHT22;11910;52.086;21.066;2023-08-31T00:02:10;18.10;99.90
23475;DHT22;11910;52.086;21.066;2023-08-31T00:04:36;18.10;99.90
23475;DHT22;11910;52.086;21.066;2023-08-31T00:07:01;18.10;99.90
23475;DHT22;11910;52.086;21.066;2023-08-31T00:09:27;18.10;99.90
23475;DHT22;11910;52.086;21.066;2023-08-31T00:11:52;18.00;99.90
23475;DHT22;11910;52.086;21.066;2023-08-31T00:14:18;18.00;99.90
23475;DHT22;11910;52.086;21.066;2023-08-31T00:16:44;18.00;99.90
23475;DHT22;11910;52.086;21.066;2023-08-31T00:19:14;18.00;99.90
23475;DHT22;11910;52.086;21.066;2023-08-31T00:21:40;18.00;99.90
23475;DHT22;11910;52.086;21.066;2023-08-31T00:24:06;18.00;99.90
23475;DHT22;11910;52.086;21.066;2023-08-31T00:26:32;18.00;99.90
23475;DHT22;11910;52.086;21.066;2023-08-31T00:28:58;18.10;99.90
23475;DHT22;11910;52.086;21.066;2023-08-31T00:31:24;18.00;99.90
23475;DHT22;11910;52.086;21.066;2023-08-31T00:33:50;18.00;99.90
23475;DHT22;11910;52.086;21.066;2023-08-31T00:36:15;18.00;99.90
23475;DHT22;11910;52.086;21.066;2023-08-31T00:38:43;18.00;99.90
23475;DHT22;11910;52.086;21.066;2023-08-31T00:41:09;18.00;99.90
23475;DHT22;11910;52.086;21.066;2023-08-31T00:43:34;18.00;99.90
23475;DHT22;11910;52.086;21.066;2023-08-31T00:46:00;18.10;99.90
23475;DHT22;11910;52.086;21.066;2023-08-31T00:48:26;18.10;99.90
23475;DHT22;11910;52.086;21.066;2023-08-31T00:50:52;18.10;99.90
23475;DHT22;11910;52.086;21.066;2023-08-31T00:53:18;18.00;99.90
23475;DHT22;11910;52.086;21.066;2023-08-31T00:55:46;18.00;99.90
23475;DHT22;11910;52.086;21.066;2023-08-31T00:58:13;18.00;99.90
23475;DHT22;11910;52.086;21.066;2023-08-31T01:01:17;18.00;99.90
23475;DHT22;11910;52.086;21.066;2023-08-31T01:03:50;18.00;99.90
23475;DHT22;11910;52.086;21.066;2023-08-31T01:06:32;18.10;99.90
23475;DHT22;11910;52.086;21.066;2023-08-31T01:09:13;18.10;99.90
23475;DHT22;11910;52.086;21.066;2023-08-31T01:14:50;18.10;99.90
23475;DHT22;11910;52.086;21.066;2023-08-31T01:17:20;18.00;99.90
23475;DHT22;11910;52.086;21.066;2023-08-31T01:19:55;18.00;99.90
23475;DHT22;11910;52.086;21.066;2023-08-31T01:22:43;18.00;99.90
23475;DHT22;11910;52.086;21.066;2023-08-31T01:25:11;17.90;99.90
23475;DHT22;11910;52.086;21.066;2023-08-31T01:27:38;17.90;99.90
23475;DHT22;11910;52.086;21.066;2023-08-31T01:30:05;17.90;99.90
23475;DHT22;11910;52.086;21.066;2023-08-31T01:32:31;17.90;99.90
23475;DHT22;11910;52.086;21.066;2023-08-31T01:34:57;17.90;99.90
23475;DHT22;11910;52.086;21.066;2023-08-31T01:40:44;17.90;99.90
23475;DHT22;11910;52.086;21.066;2023-08-31T01:43:15;18.00;99.90
23475;DHT22;11910;52.086;21.066;2023-08-31T01:45:43;18.00;99.90
23475;DHT22;11910;52.086;21.066;2023-08-31T01:48:09;18.00;99.90
23475;DHT22;11910;52.086;21.066;2023-08-31T01:50:35;17.90;99.90
23475;DHT22;11910;52.086;21.066;2023-08-31T01:53:00;17.90;99.90
23475;DHT22;11910;52.086;21.066;2023-08-31T01:55:26;17.90;99.90
23475;DHT22;11910;52.086;21.066;2023-08-31T01:57:52;17.90;99.90
23475;DHT22;11910;52.086;21.066;2023-08-31T02:00:18;17.90;99.90
23475;DHT22;11910;52.086;21.066;2023-08-31T02:02:44;17.90;99.90
23475;DHT22;11910;52.086;21.066;2023-08-31T02:05:10;17.90;99.90
23475;DHT22;11910;52.086;21.066;2023-08-31T02:07:35;17.90;99.90
23475;DHT22;11910;52.086;21.066;2023-08-31T02:10:02;17.90;99.90
23475;DHT22;11910;52.086;21.066;2023-08-31T02:12:27;17.90;99.90
23475;DHT22;11910;52.086;21.066;2023-08-31T02:14:53;17.80;99.90
23475;DHT22;11910;52.086;21.066;2023-08-31T02:17:19;17.80;99.90
23475;DHT22;11910;52.086;21.066;2023-08-31T02:19:45;17.80;99.90
23475;DHT22;11910;52.086;21.066;2023-08-31T02:22:10;17.80;99.90
23475;DHT22;11910;52.086;21.066;2023-08-31T02:24:36;17.70;99.90
23475;DHT22;11910;52.086;21.066;2023-08-31T02:27:01;17.80;99.90
23475;DHT22;11910;52.086;21.066;2023-08-31T02:29:27;17.70;99.90
23475;DHT22;11910;52.086;21.066;2023-08-31T02:31:53;17.70;99.90
23475;DHT22;11910;52.086;21.066;2023-08-31T02:34:18;17.70;99.90
23475;DHT22;11910;52.086;21.066;2023-08-31T02:36:44;17.70;99.90
23475;DHT22;11910;52.086;21.066;2023-08-31T02:39:11;17.70;99.90
23475;DHT22;11910;52.086;21.066;2023-08-31T02:41:36;17.70;99.90
23475;DHT22;11910;52.086;21.066;2023-08-31T02:44:02;17.70;99.90
23475;DHT22;11910;52.086;21.066;2023-08-31T02:46:28;17.70;99.90
23475;DHT22;11910;52.086;21.066;2023-08-31T02:48:53;17.70;99.90
23475;DHT22;11910;52.086;21.066;2023-08-31T02:51:19;17.70;99.90
23475;DHT22;11910;52.086;21.066;2023-08-31T02:53:45;17.70;99.90
23475;DHT22;11910;52.086;21.066;2023-08-31T02:56:10;17.70;99.90
23475;DHT22;11910;52.086;21.066;2023-08-31T02:58:37;17.70;99.90
23475;DHT22;11910;52.086;21.066;2023-08-31T03:01:13;17.60;99.90
23475;DHT22;11910;52.086;21.066;2023-08-31T03:03:40;17.60;99.90
23475;DHT22;11910;52.086;21.066;2023-08-31T03:06:09;17.60;99.90
23475;DHT22;11910;52.086;21.066;2023-08-31T03:08:36;17.60;99.90
23475;DHT22;11910;52.086;21.066;2023-08-31T03:11:03;17.60;99.90
23475;DHT22;11910;52.086;21.066;2023-08-31T03:13:29;17.60;99.90
23475;DHT22;11910;52.086;21.066;2023-08-31T03:15:54;17.50;99.90
23475;DHT22;11910;52.086;21.066;2023-08-31T03:18:21;17.50;99.90
23475;DHT22;11910;52.086;21.066;2023-08-31T03:20:47;17.50;99.90
23475;DHT22;11910;52.086;21.066;2023-08-31T03:23:13;17.50;99.90
23475;DHT22;11910;52.086;21.066;2023-08-31T03:25:39;17.50;99.90
23475;DHT22;11910;52.086;21.066;2023-08-31T03:28:04;17.50;99.90
23475;DHT22;11910;52.086;21.066;2023-08-31T03:30:30;17.50;99.90
23475;DHT22;11910;52.086;21.066;2023-08-31T03:32:55;17.50;99.90
23475;DHT22;11910;52.086;21.066;2023-08-31T03:35:21;17.50;99.90
23475;DHT22;11910;52.086;21.066;2023-08-31T03:37:52;17.60;99.90
23475;DHT22;11910;52.086;21.066;2023-08-31T03:40:17;17.60;99.90
23475;DHT22;11910;52.086;21.066;2023-08-31T03:42:43;17.60;99.90
23475;DHT22;11910;52.086;21.066;2023-08-31T03:45:09;17.60;99.90
23475;DHT22;11910;52.086;21.066;2023-08-31T03:47:34;17.60;99.90
23475;DHT22;11910;52.086;21.066;2023-08-31T03:50:00;17.70;99.90
23475;DHT22;11910;52.086;21.066;2023-08-31T03:52:25;17.60;99.90
23475;DHT22;11910;52.086;21.066;2023-08-31T03:54:51;17.60;99.90
23475;DHT22;11910;52.086;21.066;2023-08-31T03:57:17;17.60;99.90
23475;DHT22;11910;52.086;21.066;2023-08-31T03:59:43;17.60;99.90
23475;DHT22;11910;52.086;21.066;2023-08-31T04:02:09;17.60;99.90
23475;DHT22;11910;52.086;21.066;2023-08-31T04:04:34;17.60;99.90
23475;DHT22;11910;52.086;21.066;2023-08-31T04:07:00;17.60;99.90
23475;DHT22;11910;52.086;21.066;2023-08-31T04:09:26;17.60;99.90
23475;DHT22;11910;52.086;21.066;2023-08-31T04:11:51;17.60;99.90
23475;DHT22;11910;52.086;21.066;2023-08-31T04:14:17;17.60;99.90
23475;DHT22;11910;52.086;21.066;2023-08-31T04:16:44;17.60;99.90
23475;DHT22;11910;52.086;21.066;2023-08-31T04:19:09;17.60;99.90
23475;DHT22;11910;52.086;21.066;2023-08-31T04:21:35;17.60;99.90
23475;DHT22;11910;52.086;21.066;2023-08-31T04:24:01;17.60;99.90
23475;DHT22;11910;52.086;21.066;2023-08-31T04:26:27;17.60;99.90
23475;DHT22;11910;52.086;21.066;2023-08-31T04:28:53;17.60;99.90
23475;DHT22;11910;52.086;21.066;2023-08-31T04:31:19;17.60;99.90
23475;DHT22;11910;52.086;21.066;2023-08-31T04:33:45;17.60;99.90
23475;DHT22;11910;52.086;21.066;2023-08-31T04:36:10;17.60;99.90
23475;DHT22;11910;52.086;21.066;2023-08-31T04:38:37;17.60;99.90
23475;DHT22;11910;52.086;21.066;2023-08-31T04:41:03;17.60;99.90
23475;DHT22;11910;52.086;21.066;2023-08-31T04:43:29;17.60;99.90
23475;DHT22;11910;52.086;21.066;2023-08-31T04:45:55;17.60;99.90
23475;DHT22;11910;52.086;21.066;2023-08-31T04:48:21;17.50;99.90
23475;DHT22;11910;52.086;21.066;2023-08-31T04:50:47;17.50;99.90
23475;DHT22;11910;52.086;21.066;2023-08-31T04:53:12;17.50;99.90
23475;DHT22;11910;52.086;21.066;2023-08-31T04:55:38;17.60;99.90
23475;DHT22;11910;52.086;21.066;2023-08-31T04:58:04;17.60;99.90
23475;DHT22;11910;52.086;21.066;2023-08-31T05:00:30;17.60;99.90
23475;DHT22;11910;52.086;21.066;2023-08-31T05:02:56;17.60;99.90
23475;DHT22;11910;52.086;21.066;2023-08-31T05:05:22;17.70;99.90
23475;DHT22;11910;52.086;21.066;2023-08-31T05:07:47;17.70;99.90
23475;DHT22;11910;52.086;21.066;2023-08-31T05:10:13;17.70;99.90
23475;DHT22;11910;52.086;21.066;2023-08-31T05:12:39;17.70;99.90
23475;DHT22;11910;52.086;21.066;2023-08-31T05:15:05;17.70;99.90
23475;DHT22;11910;52.086;21.066;2023-08-31T05:17:31;17.70;99.90
23475;DHT22;11910;52.086;21.066;2023-08-31T05:19:57;17.70;99.90
23475;DHT22;11910;52.086;21.066;2023-08-31T05:22:22;17.70;99.90
23475;DHT22;11910;52.086;21.066;2023-08-31T05:24:48;17.70;99.90
23475;DHT22;11910;52.086;21.066;2023-08-31T05:27:14;17.70;99.90
23475;DHT22;11910;52.086;21.066;2023-08-31T05:29:40;17.60;99.90
23475;DHT22;11910;52.086;21.066;2023-08-31T05:32:05;17.60;99.90
23475;DHT22;11910;52.086;21.066;2023-08-31T05:34:31;17.60;99.90
23475;DHT22;11910;52.086;21.066;2023-08-31T05:37:00;17.60;99.90
23475;DHT22;11910;52.086;21.066;2023-08-31T05:39:25;17.60;99.90
23475;DHT22;11910;52.086;21.066;2023-08-31T05:41:51;17.60;99.90
23475;DHT22;11910;52.086;21.066;2023-08-31T05:44:16;17.60;99.90
23475;DHT22;11910;52.086;21.066;2023-08-31T05:46:42;17.70;99.90
23475;DHT22;11910;52.086;21.066;2023-08-31T05:49:08;17.70;99.90
23475;DHT22;11910;52.086;21.066;2023-08-31T05:51:34;17.70;99.90
23475;DHT22;11910;52.086;21.066;2023-08-31T05:54:00;17.70;99.90
23475;DHT22;11910;52.086;21.066;2023-08-31T05:56:25;17.80;99.90
23475;DHT22;11910;52.086;21.066;2023-08-31T05:58:51;17.80;99.90
23475;DHT22;11910;52.086;21.066;2023-08-31T06:01:20;17.80;99.90
23475;DHT22;11910;52.086;21.066;2023-08-31T06:03:47;17.80;99.90
23475;DHT22;11910;52.086;21.066;2023-08-31T06:06:13;17.80;99.90
23475;DHT22;11910;52.086;21.066;2023-08-31T06:08:39;17.80;99.90
23475;DHT22;11910;52.086;21.066;2023-08-31T06:11:04;17.90;99.90
23475;DHT22;11910;52.086;21.066;2023-08-31T06:13:31;17.90;99.90
23475;DHT22;11910;52.086;21.066;2023-08-31T06:15:57;17.90;99.90
23475;DHT22;11910;52.086;21.066;2023-08-31T06:18:23;17.90;99.90
23475;DHT22;11910;52.086;21.066;2023-08-31T06:20:49;17.90;99.90
23475;DHT22;11910;52.086;21.066;2023-08-31T06:23:15;17.90;99.90
23475;DHT22;11910;52.086;21.066;2023-08-31T06:25:40;17.90;99.90
23475;DHT22;11910;52.086;21.066;2023-08-31T06:28:06;17.90;99.90
23475;DHT22;11910;52.086;21.066;2023-08-31T06:30:34;17.90;99.90
23475;DHT22;11910;52.086;21.066;2023-08-31T06:33:00;17.90;99.90
23475;DHT22;11910;52.086;21.066;2023-08-31T06:35:26;18.00;99.90
23475;DHT22;11910;52.086;21.066;2023-08-31T06:37:51;18.00;99.90
23475;DHT22;11910;52.086;21.066;2023-08-31T06:40:17;17.90;99.90
23475;DHT22;11910;52.086;21.066;2023-08-31T06:42:42;18.00;99.90
23475;DHT22;11910;52.086;21.066;2023-08-31T06:45:08;18.10;99.90
23475;DHT22;11910;52.086;21.066;2023-08-31T06:47:34;18.20;99.90
23475;DHT22;11910;52.086;21.066;2023-08-31T06:50:00;18.20;99.90
23475;DHT22;11910;52.086;21.066;2023-08-31T06:52:26;18.30;99.90
23475;DHT22;11910;52.086;21.066;2023-08-31T06:54:52;18.30;99.90
23475;DHT22;11910;52.086;21.066;2023-08-31T06:57:26;18.30;99.90
23475;DHT22;11910;52.086;21.066;2023-08-31T06:59:52;18.30;99.90
23475;DHT22;11910;52.086;21.066;2023-08-31T07:02:18;18.40;99.90
23475;DHT22;11910;52.086;21.066;2023-08-31T07:04:45;18.40;99.90
23475;DHT22;11910;52.086;21.066;2023-08-31T07:07:11;18.40;99.90
23475;DHT22;11910;52.086;21.066;2023-08-31T07:09:42;18.50;99.90
23475;DHT22;11910;52.086;21.066;2023-08-31T07:12:08;18.50;99.90
23475;DHT22;11910;52.086;21.066;2023-08-31T07:14:34;18.40;99.90
23475;DHT22;11910;52.086;21.066;2023-08-31T07:16:59;18.40;99.90
23475;DHT22;11910;52.086;21.066;2023-08-31T07:19:25;18.40;99.90
23475;DHT22;11910;52.086;21.066;2023-08-31T07:21:52;18.40;99.90
23475;DHT22;11910;52.086;21.066;2023-08-31T07:24:20;18.40;99.90
23475;DHT22;11910;52.086;21.066;2023-08-31T07:26:46;18.40;99.90
23475;DHT22;11910;52.086;21.066;2023-08-31T07:29:12;18.40;99.90
23475;DHT22;11910;52.086;21.066;2023-08-31T07:31:37;18.50;99.90
23475;DHT22;11910;52.086;21.066;2023-08-31T07:34:03;18.50;99.90
23475;DHT22;11910;52.086;21.066;2023-08-31T07:36:29;18.50;99.90
23475;DHT22;11910;52.086;21.066;2023-08-31T07:38:54;18.50;99.90
23475;DHT22;11910;52.086;21.066;2023-08-31T07:41:20;18.70;99.90
23475;DHT22;11910;52.086;21.066;2023-08-31T07:43:46;18.70;99.90
23475;DHT22;11910;52.086;21.066;2023-08-31T07:46:11;18.80;99.90
23475;DHT22;11910;52.086;21.066;2023-08-31T07:48:37;19.00;99.90
23475;DHT22;11910;52.086;21.066;2023-08-31T07:51:03;19.00;99.90
23475;DHT22;11910;52.086;21.066;2023-08-31T07:53:29;19.10;99.90
23475;DHT22;11910;52.086;21.066;2023-08-31T07:55:55;19.10;99.90
23475;DHT22;11910;52.086;21.066;2023-08-31T07:58:22;19.20;99.90
23475;DHT22;11910;52.086;21.066;2023-08-31T08:00:48;19.30;99.90
23475;DHT22;11910;52.086;21.066;2023-08-31T08:03:14;19.40;99.90
23475;DHT22;11910;52.086;21.066;2023-08-31T08:05:40;19.60;99.90
23475;DHT22;11910;52.086;21.066;2023-08-31T08:08:06;19.60;99.90
23475;DHT22;11910;52.086;21.066;2023-08-31T08:10:32;19.70;99.90
23475;DHT22;11910;52.086;21.066;2023-08-31T08:12:58;19.70;99.90
23475;DHT22;11910;52.086;21.066;2023-08-31T08:15:24;19.80;99.90
23475;DHT22;11910;52.086;21.066;2023-08-31T08:17:50;19.80;99.90
23475;DHT22;11910;52.086;21.066;2023-08-31T08:20:16;19.90;99.90
23475;DHT22;11910;52.086;21.066;2023-08-31T08:22:42;20.00;99.90
23475;DHT22;11910;52.086;21.066;2023-08-31T08:25:08;20.10;99.90
23475;DHT22;11910;52.086;21.066;2023-08-31T08:27:34;20.30;99.90
23475;DHT22;11910;52.086;21.066;2023-08-31T08:30:02;20.40;99.90
23475;DHT22;11910;52.086;21.066;2023-08-31T08:32:28;20.60;99.90
23475;DHT22;11910;52.086;21.066;2023-08-31T08:34:54;20.70;99.90
23475;DHT22;11910;52.086;21.066;2023-08-31T08:37:19;20.80;99.90
23475;DHT22;11910;52.086;21.066;2023-08-31T08:39:51;20.90;99.90
23475;DHT22;11910;52.086;21.066;2023-08-31T08:42:18;21.00;99.90
23475;DHT22;11910;52.086;21.066;2023-08-31T08:44:44;21.10;99.90
23475;DHT22;11910;52.086;21.066;2023-08-31T08:47:11;21.30;98.80
23475;DHT22;11910;52.086;21.066;2023-08-31T08:49:37;21.40;98.30
23475;DHT22;11910;52.086;21.066;2023-08-31T08:52:04;21.50;99.30
23475;DHT22;11910;52.086;21.066;2023-08-31T08:54:30;21.70;98.00
23475;DHT22;11910;52.086;21.066;2023-08-31T08:56:56;21.90;96.30
23475;DHT22;11910;52.086;21.066;2023-08-31T08:59:22;22.10;97.00
23475;DHT22;11910;52.086;21.066;2023-08-31T09:01:48;22.10;96.30
23475;DHT22;11910;52.086;21.066;2023-08-31T09:04:14;22.10;95.50
23475;DHT22;11910;52.086;21.066;2023-08-31T09:06:40;22.10;95.90
23475;DHT22;11910;52.086;21.066;2023-08-31T09:09:08;22.00;96.20
23475;DHT22;11910;52.086;21.066;2023-08-31T09:11:35;22.00;96.00
23475;DHT22;11910;52.086;21.066;2023-08-31T09:14:17;22.00;95.10
23475;DHT22;11910;52.086;21.066;2023-08-31T09:16:47;22.00;94.80
23475;DHT22;11910;52.086;21.066;2023-08-31T09:19:24;22.00;93.50
23475;DHT22;11910;52.086;21.066;2023-08-31T09:21:51;22.10;94.70
23475;DHT22;11910;52.086;21.066;2023-08-31T09:24:17;22.30;94.00
23475;DHT22;11910;52.086;21.066;2023-08-31T09:26:55;22.40;94.80
23475;DHT22;11910;52.086;21.066;2023-08-31T09:29:21;22.50;92.90
23475;DHT22;11910;52.086;21.066;2023-08-31T09:31:47;22.70;92.80
23475;DHT22;11910;52.086;21.066;2023-08-31T09:34:14;22.90;92.30
23475;DHT22;11910;52.086;21.066;2023-08-31T09:36:41;23.00;92.90
23475;DHT22;11910;52.086;21.066;2023-08-31T09:39:07;22.90;93.00
23475;DHT22;11910;52.086;21.066;2023-08-31T09:41:34;23.10;92.40
23475;DHT22;11910;52.086;21.066;2023-08-31T09:44:16;24.10;91.40
23475;DHT22;11910;52.086;21.066;2023-08-31T09:46:43;25.00;88.70
23475;DHT22;11910;52.086;21.066;2023-08-31T09:49:11;25.90;87.20
23475;DHT22;11910;52.086;21.066;2023-08-31T09:51:40;26.70;85.30
23475;DHT22;11910;52.086;21.066;2023-08-31T09:54:07;27.20;84.10
23475;DHT22;11910;52.086;21.066;2023-08-31T09:56:34;27.50;80.30
23475;DHT22;11910;52.086;21.066;2023-08-31T09:59:01;27.20;79.40
23475;DHT22;11910;52.086;21.066;2023-08-31T10:01:28;26.70;81.30
23475;DHT22;11910;52.086;21.066;2023-08-31T10:03:53;25.90;81.10
23475;DHT22;11910;52.086;21.066;2023-08-31T10:06:22;25.40;83.80
23475;DHT22;11910;52.086;21.066;2023-08-31T10:08:48;25.90;82.90
23475;DHT22;11910;52.086;21.066;2023-08-31T10:11:14;26.20;83.10
23475;DHT22;11910;52.086;21.066;2023-08-31T10:13:41;26.60;80.60
23475;DHT22;11910;52.086;21.066;2023-08-31T10:16:08;25.90;80.90
23475;DHT22;11910;52.086;21.066;2023-08-31T10:18:34;25.40;83.70
23475;DHT22;11910;52.086;21.066;2023-08-31T10:21:02;25.00;82.50
23475;DHT22;11910;52.086;21.066;2023-08-31T10:23:28;25.10;85.00
23475;DHT22;11910;52.086;21.066;2023-08-31T10:28:26;24.30;85.10
23475;DHT22;11910;52.086;21.066;2023-08-31T10:31:09;24.20;86.20
23475;DHT22;11910;52.086;21.066;2023-08-31T10:33:42;23.90;85.90
23475;DHT22;11910;52.086;21.066;2023-08-31T10:36:18;23.70;86.60
23475;DHT22;11910;52.086;21.066;2023-08-31T10:39:00;23.60;89.90
23475;DHT22;11910;52.086;21.066;2023-08-31T10:41:33;23.70;90.20
23475;DHT22;11910;52.086;21.066;2023-08-31T10:43:59;23.50;88.30
23475;DHT22;11910;52.086;21.066;2023-08-31T10:51:31;23.20;90.00
23475;DHT22;11910;52.086;21.066;2023-08-31T10:54:20;23.00;90.50
23475;DHT22;11910;52.086;21.066;2023-08-31T10:59:50;22.80;90.80
23475;DHT22;11910;52.086;21.066;2023-08-31T11:05:07;22.80;92.30
23475;DHT22;11910;52.086;21.066;2023-08-31T11:07:33;22.80;91.80
23475;DHT22;11910;52.086;21.066;2023-08-31T11:10:13;22.80;92.00
23475;DHT22;11910;52.086;21.066;2023-08-31T11:12:41;22.90;92.00
23475;DHT22;11910;52.086;21.066;2023-08-31T11:15:07;22.80;91.60
23475;DHT22;11910;52.086;21.066;2023-08-31T11:17:33;22.80;91.30
23475;DHT22;11910;52.086;21.066;2023-08-31T11:19:59;22.80;90.10
23475;DHT22;11910;52.086;21.066;2023-08-31T11:22:26;22.70;90.50
23475;DHT22;11910;52.086;21.066;2023-08-31T11:24:52;22.70;90.10
23475;DHT22;11910;52.086;21.066;2023-08-31T11:27:21;22.80;90.50
23475;DHT22;11910;52.086;21.066;2023-08-31T11:29:47;22.90;90.20
23475;DHT22;11910;52.086;21.066;2023-08-31T11:32:13;23.10;90.20
23475;DHT22;11910;52.086;21.066;2023-08-31T11:34:44;23.30;88.70
23475;DHT22;11910;52.086;21.066;2023-08-31T11:37:14;23.40;88.70
23475;DHT22;11910;52.086;21.066;2023-08-31T11:39:51;23.60;89.50
23475;DHT22;11910;52.086;21.066;2023-08-31T11:42:19;23.70;88.00
23475;DHT22;11910;52.086;21.066;2023-08-31T11:44:47;23.70;88.30
23475;DHT22;11910;52.086;21.066;2023-08-31T11:47:13;23.70;87.50
23475;DHT22;11910;52.086;21.066;2023-08-31T11:49:41;23.70;86.60
23475;DHT22;11910;52.086;21.066;2023-08-31T11:52:10;23.80;86.80
23475;DHT22;11910;52.086;21.066;2023-08-31T11:54:37;23.80;86.40
23475;DHT22;11910;52.086;21.066;2023-08-31T11:57:06;23.70;88.90
23475;DHT22;11910;52.086;21.066;2023-08-31T11:59:35;23.80;90.10
23475;DHT22;11910;52.086;21.066;2023-08-31T12:02:01;23.90;90.10
23475;DHT22;11910;52.086;21.066;2023-08-31T12:04:30;24.00;88.00
23475;DHT22;11910;52.086;21.066;2023-08-31T12:07:01;24.20;87.20
23475;DHT22;11910;52.086;21.066;2023-08-31T12:09:32;24.30;86.40
23475;DHT22;11910;52.086;21.066;2023-08-31T12:11:58;24.10;87.10
23475;DHT22;11910;52.086;21.066;2023-08-31T12:14:26;24.10;86.90
23475;DHT22;11910;52.086;21.066;2023-08-31T12:17:00;24.20;84.40
23475;DHT22;11910;52.086;21.066;2023-08-31T12:19:30;24.20;87.30
23475;DHT22;11910;52.086;21.066;2023-08-31T12:21:56;24.30;85.50
23475;DHT22;11910;52.086;21.066;2023-08-31T12:24:22;24.40;85.30
23475;DHT22;11910;52.086;21.066;2023-08-31T12:26:51;24.50;83.40
23475;DHT22;11910;52.086;21.066;2023-08-31T12:29:21;24.40;81.90
23475;DHT22;11910;52.086;21.066;2023-08-31T12:31:47;24.30;84.50
23475;DHT22;11910;52.086;21.066;2023-08-31T12:34:13;24.10;86.30
23475;DHT22;11910;52.086;21.066;2023-08-31T12:36:38;23.90;86.10
23475;DHT22;11910;52.086;21.066;2023-08-31T12:39:07;24.00;85.70
23475;DHT22;11910;52.086;21.066;2023-08-31T12:41:36;24.10;87.90
23475;DHT22;11910;52.086;21.066;2023-08-31T12:44:02;24.30;88.00
23475;DHT22;11910;52.086;21.066;2023-08-31T12:46:29;24.30;84.80
23475;DHT22;11910;52.086;21.066;2023-08-31T12:48:55;24.30;84.00
23475;DHT22;11910;52.086;21.066;2023-08-31T12:51:21;24.40;84.50
23475;DHT22;11910;52.086;21.066;2023-08-31T12:53:46;24.30;85.10
23475;DHT22;11910;52.086;21.066;2023-08-31T12:56:12;24.30;85.70
23475;DHT22;11910;52.086;21.066;2023-08-31T12:58:38;24.30;84.50
23475;DHT22;11910;52.086;21.066;2023-08-31T13:01:04;24.20;83.50
23475;DHT22;11910;52.086;21.066;2023-08-31T13:03:32;24.10;84.80
23475;DHT22;11910;52.086;21.066;2023-08-31T13:05:58;23.90;85.00
23475;DHT22;11910;52.086;21.066;2023-08-31T13:08:23;23.90;86.60
23475;DHT22;11910;52.086;21.066;2023-08-31T13:10:53;23.80;87.20
23475;DHT22;11910;52.086;21.066;2023-08-31T13:13:19;23.80;87.10
23475;DHT22;11910;52.086;21.066;2023-08-31T13:15:49;23.80;84.80
23475;DHT22;11910;52.086;21.066;2023-08-31T13:18:15;23.80;85.90
23475;DHT22;11910;52.086;21.066;2023-08-31T13:20:40;23.80;84.00
23475;DHT22;11910;52.086;21.066;2023-08-31T13:23:06;23.90;84.90
23475;DHT22;11910;52.086;21.066;2023-08-31T13:25:32;23.90;83.00
23475;DHT22;11910;52.086;21.066;2023-08-31T13:27:58;23.90;84.10
23475;DHT22;11910;52.086;21.066;2023-08-31T13:30:24;23.80;81.40
23475;DHT22;11910;52.086;21.066;2023-08-31T13:32:49;23.70;83.80
23475;DHT22;11910;52.086;21.066;2023-08-31T13:35:15;23.70;83.10
23475;DHT22;11910;52.086;21.066;2023-08-31T13:37:41;23.60;88.10
23475;DHT22;11910;52.086;21.066;2023-08-31T13:40:07;23.50;84.00
23475;DHT22;11910;52.086;21.066;2023-08-31T13:42:35;23.50;84.10
23475;DHT22;11910;52.086;21.066;2023-08-31T13:45:05;23.40;83.60
23475;DHT22;11910;52.086;21.066;2023-08-31T13:47:31;23.30;84.40
23475;DHT22;11910;52.086;21.066;2023-08-31T13:49:56;23.30;84.90
23475;DHT22;11910;52.086;21.066;2023-08-31T13:52:22;23.30;84.40
23475;DHT22;11910;52.086;21.066;2023-08-31T13:54:48;23.30;84.40
23475;DHT22;11910;52.086;21.066;2023-08-31T13:57:13;23.40;86.70
23475;DHT22;11910;52.086;21.066;2023-08-31T13:59:43;23.30;85.00
23475;DHT22;11910;52.086;21.066;2023-08-31T14:02:09;23.30;85.60
23475;DHT22;11910;52.086;21.066;2023-08-31T14:04:34;23.20;86.10
23475;DHT22;11910;52.086;21.066;2023-08-31T14:07:00;23.00;86.30
23475;DHT22;11910;52.086;21.066;2023-08-31T14:09:27;23.00;88.00
23475;DHT22;11910;52.086;21.066;2023-08-31T14:11:53;22.90;88.90
23475;DHT22;11910;52.086;21.066;2023-08-31T14:14:20;22.90;89.60
23475;DHT22;11910;52.086;21.066;2023-08-31T14:16:47;22.80;89.30
23475;DHT22;11910;52.086;21.066;2023-08-31T14:19:13;22.60;89.50
23475;DHT22;11910;52.086;21.066;2023-08-31T14:21:39;22.30;88.90
23475;DHT22;11910;52.086;21.066;2023-08-31T14:24:05;22.00;88.30
23475;DHT22;11910;52.086;21.066;2023-08-31T14:26:31;21.70;90.20
23475;DHT22;11910;52.086;21.066;2023-08-31T14:28:57;21.50;89.90
23475;DHT22;11910;52.086;21.066;2023-08-31T14:31:22;21.30;89.70
23475;DHT22;11910;52.086;21.066;2023-08-31T14:33:48;21.10;90.20
23475;DHT22;11910;52.086;21.066;2023-08-31T14:36:15;20.80;91.40
23475;DHT22;11910;52.086;21.066;2023-08-31T14:38:41;20.60;94.00
23475;DHT22;11910;52.086;21.066;2023-08-31T14:41:06;20.30;96.20
23475;DHT22;11910;52.086;21.066;2023-08-31T14:45:59;19.70;99.90
23475;DHT22;11910;52.086;21.066;2023-08-31T14:48:30;19.30;99.70
23475;DHT22;11910;52.086;21.066;2023-08-31T14:50:56;19.00;99.90
23475;DHT22;11910;52.086;21.066;2023-08-31T14:53:24;18.90;99.90
23475;DHT22;11910;52.086;21.066;2023-08-31T14:55:50;18.70;99.90
23475;DHT22;11910;52.086;21.066;2023-08-31T14:58:19;18.60;99.90
23475;DHT22;11910;52.086;21.066;2023-08-31T15:00:47;18.50;99.90
23475;DHT22;11910;52.086;21.066;2023-08-31T15:03:13;18.50;99.90
23475;DHT22;11910;52.086;21.066;2023-08-31T15:05:42;18.40;99.90
23475;DHT22;11910;52.086;21.066;2023-08-31T15:08:08;18.40;99.90
23475;DHT22;11910;52.086;21.066;2023-08-31T15:10:37;18.40;99.90
23475;DHT22;11910;52.086;21.066;2023-08-31T15:13:08;18.40;99.90
23475;DHT22;11910;52.086;21.066;2023-08-31T15:15:37;18.50;99.90
23475;DHT22;11910;52.086;21.066;2023-08-31T15:18:05;18.50;99.90
23475;DHT22;11910;52.086;21.066;2023-08-31T15:20:31;18.50;99.90
23475;DHT22;11910;52.086;21.066;2023-08-31T15:22:59;18.60;99.90
23475;DHT22;11910;52.086;21.066;2023-08-31T15:25:24;18.60;99.90
23475;DHT22;11910;52.086;21.066;2023-08-31T15:27:57;18.60;99.90
23475;DHT22;11910;52.086;21.066;2023-08-31T15:30:23;18.60;99.90
23475;DHT22;11910;52.086;21.066;2023-08-31T15:32:51;18.60;99.90
23475;DHT22;11910;52.086;21.066;2023-08-31T15:35:20;18.70;99.90
23475;DHT22;11910;52.086;21.066;2023-08-31T15:37:45;18.70;99.90